Spring 2018 online courses: (Updates Daily)

Click here for ways to register for all online courses


CRN Subj. Cat. Sec. Course Title/Topic Start Date End Date Faculty Course Info Page
90545 ANT 252 0990 Civilization in South Asia 1/22/2018 5/4/2018 Henry L Munson View ANT 252 Info Page
89409 ANT 431 0990 Folklore, the Environment and Public Policy 1/22/2018 5/4/2018 Pauleena M Macdougall View ANT 431 Info Page
86615 AST 109 0990 Introduction to Astronomy 1/22/2018 5/4/2018 David J Batuski, Sarah Beth Rice View AST 109 Info Page
86625 AST 110 0990 Introduction to Astronomy Laboratory 1/22/2018 5/4/2018 Andrej P Favia, Sarah Beth Rice View AST 110 Info Page
89438 BUA 609 0990 Financial Statement Analysis 1/22/2018 5/4/2018 David J Barrett View BUA 609 Info Page
89146 BUA 649 0990 Management Policy 1/22/2018 5/4/2018 Grant Miles View BUA 649 Info Page
87445 CHF 423 0990 Professional Seminar in Child Development and Family Relations 1/22/2018 5/4/2018 Patrick P Cheek View CHF 423 Info Page
87449 CLA 102 0990 Latin Literature in English Translation 1/22/2018 5/4/2018 James Patrick Brophy View CLA 102 Info Page
87886 CLA 202 0990 Mythology of the Ancient Near East, North Africa and Greece 1/22/2018 5/4/2018 James Patrick Brophy View CLA 202 Info Page
88746 COS 103 0990 Introduction to Spreadsheets 1/22/2018 5/4/2018 Carol A Roberts View COS 103 Info Page
89539 DIG 510 0990 Metadata Systems 1/22/2018 5/4/2018 John P Bell View DIG 510 Info Page
89537 DIG 550 0990 Digital Preservation 1/22/2018 5/4/2018 Richard V Hollinger, Jon Ippolito View DIG 550 Info Page
89543 ECE 467 0990 Solar Cells and Their Applications 1/22/2018 5/4/2018 Nuri W Emanetoglu View ECE 467 Info Page
86598 ECE 484 0990 Communications Engineering 1/22/2018 5/4/2018 Ali Abedi View ECE 484 Info Page
89320 ECE 585 0990 Fundamentals of Wireless Communication 1/22/2018 5/4/2018 Ali Abedi View ECE 585 Info Page
86648 ECO 120 0990 Principles of Microeconomics 1/22/2018 5/4/2018 Todd M Gabe View ECO 120 Info Page
86653 ECO 121 0990 Principles of Macroeconomics 1/22/2018 5/4/2018 Travis Lawrence Blackmer View ECO 121 Info Page
89677 EDT 542 0990 Supporting Technology Integration through Professional Development and Coaching 1/22/2018 5/4/2018 Jessica L Ludders View EDT 542 Info Page
89506 EDT 559 0990 Organizational Leadership for Instructional Technology 1/22/2018 5/4/2018 Joella Ashley Montgomery View EDT 559 Info Page
89556 EDT 657 0990 Practicum 1/22/2018 5/4/2018 Justin Dimmel View EDT 657 Info Page
89553 EDT 693 0990 Educational Internship 1/22/2018 5/4/2018 Justin Dimmel View EDT 693 Info Page
86661 EET 498 0994 Selected Topics in Electrical Engineering Technology 1/22/2018 5/4/2018 Paul L Villeneuve View EET 498 Info Page
89555 EHD 586 0990 Seminar: Action Research in PreK-12 Schools 1/22/2018 5/4/2018 John E Maddaus View EHD 586 Info Page
87887 EHD 590 0001 Topics in Education 1/22/2018 5/4/2018 Catharine Biddle View EHD 590 Info Page
86939 EHD 657 0990 Education Practicum 1/22/2018 5/4/2018 Richard B Kent View EHD 657 Info Page
90549 ENG 229 0990 Topics in Literature 1/22/2018 5/4/2018 Audrey Le View ENG 229 Info Page
87833 ENG 229 0991 Topics in Literature 1/22/2018 5/4/2018 Alan P Marks View ENG 229 Info Page
89563 ERL 547 0990 National Writing Project Seminar in Mentoring 1/22/2018 5/4/2018 Maryia J Labree View ERL 547 Info Page
86963 ERL 590 0990 Special Topics in English Language Arts and Related Fields 1/22/2018 5/4/2018 Emily Morrison View ERL 590 Info Page
87823 FAS 329 0990 Topics in Franco American Studies 1/22/2018 5/4/2018 Mary Okin View FAS 329 Info Page
88243 FRE 201 0990 Intermediate French I 1/22/2018 5/4/2018 Jane S Smith View FRE 201 Info Page
87475 FSN 101 0990 Introduction to Food and Nutrition 1/22/2018 5/4/2018 Elizabeth Carol Dodge View FSN 101 Info Page
88433 FSN 230 0990 Nutritional and Medical Terminology 1/22/2018 5/4/2018 Mary E Camire View FSN 230 Info Page
87477 FSN 270 0990 World Food and Nutrition 1/22/2018 5/4/2018 Mona Therrien View FSN 270 Info Page
89667 FSN 506 0990 Nutritional Assessment 1/22/2018 5/4/2018 Mona Therrien View FSN 506 Info Page
91707 GEE 694 P701 Professional Science Masters in Engineering and Business Internship 1/22/2018 5/4/2018 Raymond J Hintz View GEE 694 Info Page
91846 GEE 694 P702 Professional Science Masters in Engineering and Business Internship 1/22/2018 5/4/2018 Wilhelm Friess, S David Dvorak View GEE 694 Info Page
87116 HED 690 0990 Higher Education Internship 1/22/2018 5/4/2018 Kathleen Gillon View HED 690 Info Page
88206 HTY 220 0990 North American Indian History 1/22/2018 5/4/2018 Greg Rogers View HTY 220 Info Page
86971 HTY 521 0984 Canada and the United States, 1783 to the Present 1/22/2018 5/4/2018 Jacques Ferland View HTY 521 Info Page
86978 IDS 500 0990 Graduate Seminar in Interdisciplinary Studies 1/22/2018 5/4/2018 James Patrick Brophy View IDS 500 Info Page
86979 IDS 500 0991 Graduate Seminar in Interdisciplinary Studies 1/22/2018 5/4/2018 Mary Okin View IDS 500 Info Page
88580 INA 201 0990 Topics in International Affairs 1/22/2018 5/4/2018 Glen Paul Holman View INA 201 Info Page
89253 INT 601 0994 (University Wide) Responsible Conduct of Research 1/23/2018 2/22/2018 James J Campbell View INT 601 Info Page
89255 INT 601 0992 (University Wide) Responsible Conduct of Research 1/22/2018 2/26/2018 James J Campbell View INT 601 Info Page
89279 KPE 490 0990 Nutrition for Sports and Exercise 1/22/2018 5/4/2018 Robert A Lehnhard View KPE 490 Info Page
87483 LAT 102 0990 Elementary Latin II 1/22/2018 5/4/2018 Paulette E Barton View LAT 102 Info Page
89611 LDR 100 0990 Foundations of Leadership 1/22/2018 5/4/2018 Richard J Powell View LDR 100 Info Page
89587 MAT 111 0990 Algebra for College Mathematics 1/22/2018 5/4/2018 Tandy L Del Vecchio View MAT 111 Info Page
89498 MEE 548 0990 Spacecraft Orbit and Attitude Dynamics and Control 1/22/2018 5/4/2018 David Rubenstein View MEE 548 Info Page
89349 MES 101 0990 Introduction to Maine Studies 1/22/2018 5/4/2018 Jennifer Pickard View MES 101 Info Page
89312 MES 498 0990 Advanced Topics in Maine Studies 1/22/2018 5/4/2018 Kreg T Ettenger View MES 498 Info Page
89313 MES 498 0991 Advanced Topics in Maine Studies 1/22/2018 5/4/2018 Pauleena M Macdougall View MES 498 Info Page
89315 MES 498 0993 Advanced Topics in Maine Studies 1/22/2018 5/4/2018 Mary Okin View MES 498 Info Page
89309 MES 520 0990 Advanced Topics in Maine Studies 1/22/2018 5/4/2018 Kreg T Ettenger View MES 520 Info Page
89515 MES 540 0993 Maine and the Northeast Borderlands 1/22/2018 5/4/2018 Mary Okin View MES 540 Info Page
87987 MET 484 0990 Engineering Economics 1/22/2018 5/4/2018 Judith Ellen Pearse View MET 484 Info Page
86799 MUY 101 0990 Fundamentals of Music 1/22/2018 5/4/2018 Stuart L Marrs View MUY 101 Info Page
89507 NUR 103 0990 Foundations of Nursing Practice II 1/22/2018 5/4/2018 Nilda T Cravens View NUR 103 Info Page
89565 NUR 165 0990 Introduction to Care of the Older Adult 1/22/2018 5/4/2018 Kelley Ann Strout View NUR 165 Info Page
88098 NUR 303 0990 Pathophysiology 1/22/2018 5/4/2018 Deborah Saber View NUR 303 Info Page
87993 NUR 415 0990 Socio-Cultural Issues in Health and Health Care 1/22/2018 5/4/2018 Nilda T Cravens View NUR 415 Info Page
89581 NUR 435 0990 Nursing Care of Patients and Families at End of Life 1/22/2018 5/4/2018 Patricia A Poirier View NUR 435 Info Page
88386 NUR 512 0990 Curriculum and Course Development and Evaluation in Nursing Education 1/22/2018 5/4/2018 Patricia A Poirier View NUR 512 Info Page
87603 PAX 201 0990 Introduction to Peace and Reconciliation Studies 1/22/2018 5/4/2018 Amy Eileen Cross View PAX 201 Info Page
89567 PAX 290 0990 Nonviolence: Perceptions and Perspectives 1/22/2018 5/4/2018 Hugh J Curran View PAX 290 Info Page
88497 PAX 350 0990 Buddhism, Peace and Contemplative Traditions 1/22/2018 5/4/2018 Hugh J Curran View PAX 350 Info Page
87605 PAX 498 0990 Special Projects in Peace and Reconciliation Studies 1/22/2018 5/4/2018 Sidney Mitchell View PAX 498 Info Page
89306 PAX 598 0990 Independent Graduate Study 1/22/2018 5/4/2018 Sidney Mitchell View PAX 598 Info Page
86850 POS 100 0990 American Government 1/22/2018 5/4/2018 Richard J Powell View POS 100 Info Page
89548 POS 349 0990 Topics in Comparative Politics 1/22/2018 5/4/2018 Glen Paul Holman View POS 349 Info Page
89277 POS 355 0990 Music and Politics in the American Context 1/22/2018 5/4/2018 Mark D Brewer View POS 355 Info Page
89003 PSY 241 0990 Statistics in Psychology 1/22/2018 5/4/2018 Shannon K McCoy View PSY 241 Info Page
89428 SED 500 0990 Adapting Instruction for Students with Disabilities 1/22/2018 5/4/2018 Diane W Jackson View SED 500 Info Page
89091 SED 516 0990 Seminar and Practicum in Collaborative Consultation 1/22/2018 5/4/2018 Kellie Jane Irving View SED 516 Info Page
90919 SED 582 0990 Response to Intervention for Behavior: Targeted Interventions 1/22/2018 5/4/2018 Elizabeth Laura Van Uden View SED 582 Info Page
88638 SED 610 0990 Internship in Special Education Teaching 1/22/2018 5/4/2018 Deborah Rooks View SED 610 Info Page
88639 SED 620 0990 Practicum in Special Education 1/22/2018 5/4/2018 Deborah Rooks View SED 620 Info Page
89288 SFR 111 0990 Forests Through Time 1/22/2018 5/4/2018 William H Livingston View SFR 111 Info Page
88868 SIE 505 0990 Formal Foundations for Information Science 1/22/2018 5/4/2018 Torsten Hahmann View SIE 505 Info Page
88870 SIE 510 0990 Geographic Information Systems Applications 1/22/2018 5/4/2018 Mary Kate Beard-Tisdale View SIE 510 Info Page
89376 SIE 515 0990 Human Computer Interaction 1/22/2018 5/4/2018 Nicholas Giudice View SIE 515 Info Page
87810 SIE 525 0990 Information Systems Law 1/22/2018 5/4/2018 Harlan J Onsrud View SIE 525 Info Page
88496 SIE 555 0990 Spatial Database Systems 1/22/2018 5/4/2018 Silvia E Nittel View SIE 555 Info Page
89514 SIE 557 0990 Database System Applications 1/22/2018 5/4/2018 Silvia E Nittel View SIE 557 Info Page
88046 SOC 340 0990 Intermediate Topics in Sociology 1/22/2018 5/4/2018 Mary Okin View SOC 340 Info Page
88047 SOC 340 0991 Intermediate Topics in Sociology 1/22/2018 5/4/2018 Mary Okin View SOC 340 Info Page
88800 SVT 325 0999 Surveying/Engineering Ethics 1/22/2018 5/4/2018 Carlton Arthur Brown View SVT 325 Info Page
89721 SVT 332 0990 Engineering for Surveyors 1/22/2018 5/4/2018 Knud E Hermansen View SVT 332 Info Page
90242 SVT 512 P701 Advanced Survey Law 1/22/2018 5/4/2018 Knud E Hermansen View SVT 512 Info Page
89676 SVT 512 0990 Advanced Survey Law 1/22/2018 5/4/2018 Knud E Hermansen View SVT 512 Info Page
89597 SVT 532 0990 Survey Strategies in Use of Lidar 1/22/2018 5/4/2018 Raymond J Hintz View SVT 532 Info Page
89599 SVT 541 0990 Geodesy 1/22/2018 5/4/2018 Raymond J Hintz View SVT 541 Info Page
88104 SWK 330 0990 Contemporary Issues in Diversity and Pluralism 1/22/2018 5/4/2018 Stephen F Gilson View SWK 330 Info Page
88211 SWK 580 0990 Adult and Child Psychopathology 1/22/2018 5/4/2018 Brent Wolcott Scobie View SWK 580 Info Page
87335 SWK 597 0990 Advanced Topics in Social Work 1/22/2018 5/4/2018 Elin R Mackinnon View SWK 597 Info Page
88109 SWK 692 0990 Advanced Social Work Research II 1/27/2018 4/28/2018 Elizabeth Depoy View SWK 692 Info Page
87344 SWK 695 0991 Advanced Field Practicum in Social Work 1/22/2018 5/4/2018 Elin R Mackinnon View SWK 695 Info Page
86871 THE 111 0990 Introduction to Theatre 1/22/2018 5/4/2018 Amy J Roeder View THE 111 Info Page
88051 UST 100 0990 Introduction to the Bachelor of University Studies 3/19/2018 4/27/2018 Lori C Wingo View UST 100 Info Page
88052 UST 300 0990 Core Course in University Studies 1/22/2018 5/4/2018 Jeffrey Downey View UST 300 Info Page
87105 WGS 101 0990 Women's, Gender and Sexuality Studies 1/22/2018 5/4/2018 Mary Okin View WGS 101 Info Page
90529 WGS 201 0990 Topics in Women's, Gender, and Sexuality Studies 1/22/2018 5/4/2018 Leonore S Hildebrandt View WGS 201 Info Page
90550 WGS 201 0991 Topics in Women's, Gender, and Sexuality Studies 1/22/2018 5/4/2018 Audrey Le View WGS 201 Info Page
88491 WGS 230 0990 Women, Health and the Environment 1/22/2018 5/4/2018 Sandra S Haggard View WGS 230 Info Page
87999 WGS 301 0990 Intermediate Topics in Women's, Gender, and Sexuality Studies 1/22/2018 5/4/2018 Mary Okin View WGS 301 Info Page
88176 WGS 501 0990 Graduate Topics in Women's, Gender, and Sexuality Studies 1/22/2018 5/4/2018 Mary Okin View WGS 501 Info Page

Request Information

Our advising center can answer all of your questions about earning a degree or certificate through UMaineOnline.

Call us at 207.581.5858 or email us at umaineonline@maine.edu.

We look forward to speaking with you!

Summer 2018 online courses (Update Daily)

Click here for ways to register for all online courses


CRN Subj. Cat. Sec. Course Title/Topic Start Date End Date Faculty Course Info Page
3992 ANT 120 0990 Religions of the World 5/14/2018 6/22/2018 Henry L Munson View ANT 120 Info Page
4117 ANT 245 0990 Sex and Gender in Cross-Cultural Perspective 5/14/2018 6/1/2018 Lisa K Neuman View ANT 245 Info Page
3594 ANT 477 0870 Field Research in Archaeology 5/12/2018 6/10/2018 Gregory D Zaro View ANT 477 Info Page
3432 ARH 156 0990 Art and Visual Culture in the Modern Era 5/14/2018 8/17/2018 Justin Wolff View ARH 156 Info Page
3434 AST 109 0990 Introduction to Astronomy 5/14/2018 6/22/2018 David J Batuski View AST 109 Info Page
3436 AST 110 0990 Introduction to Astronomy Laboratory 6/25/2018 8/3/2018 TBA View AST 110 Info Page
4108 BMS 690 0990 Special Topics in Biomedical Science and Engineering 5/14/2018 8/17/2018 Andre Khalil View BMS 690 Info Page
3916 BUA 201 0990 Principles of Financial Accounting 5/14/2018 6/1/2018 Steven C Colburn View BUA 201 Info Page
3921 BUA 400 0990 Introduction to Accounting 5/29/2018 8/3/2018 David J Barrett View BUA 400 Info Page
3685 CHF 200 0990 Family Interaction 6/25/2018 8/3/2018 Ian H Cameron View CHF 200 Info Page
3686 CHF 201 0991 Introduction to Child Development 7/30/2018 8/17/2018 Barbara D Howard View CHF 201 Info Page
3687 CHF 201 0990 Introduction to Child Development 5/14/2018 6/1/2018 Barbara D Howard View CHF 201 Info Page
3688 CHF 351 0990 Human Sexuality 5/14/2018 6/1/2018 Sandra L Caron View CHF 351 Info Page
3689 CHF 351 0991 Human Sexuality 7/16/2018 8/3/2018 Sandra L Caron View CHF 351 Info Page
3691 CHF 431 0990 Parenting 5/14/2018 6/22/2018 Patrick P Cheek View CHF 431 Info Page
3692 CHF 452 0990 Violence in the Family 6/4/2018 6/22/2018 Patrick P Cheek View CHF 452 Info Page
4173 CIE 210 0990 Sustainability in Engineering 5/14/2018 6/22/2018 Miltiades K Zacas View CIE 210 Info Page
3994 CMJ 100 0990 Introduction to Media Studies 6/25/2018 7/13/2018 Paul R Grosswiler View CMJ 100 Info Page
4185 CMJ 119 0990 Humor and Diversity in the U. S. 5/14/2018 6/1/2018 Holly Schreiber View CMJ 119 Info Page
3999 CMJ 236 0990 Journalism Writing and Editing 5/14/2018 6/22/2018 Sydne Marie Cook View CMJ 236 Info Page
4000 CMJ 367 0990 Public Relations 6/25/2018 8/3/2018 TBA View CMJ 367 Info Page
4082 CMJ 370 0990 Visual Communication 6/4/2018 6/22/2018 Bryan Picciotto View CMJ 370 Info Page
4001 CMJ 380 0990 Advertising, Media and Society 6/25/2018 8/3/2018 Dana Carver-Bialer View CMJ 380 Info Page
4003 COS 103 0990 Introduction to Spreadsheets 6/4/2018 6/22/2018 Carol A Roberts View COS 103 Info Page
3437 COS 211 0990 Principles of Data Processing 6/4/2018 6/22/2018 Carol A Roberts View COS 211 Info Page
4040 DIS 300 0990 Disability: Interaction of Human Diversity and Global Environment 5/14/2018 6/22/2018 Stephen F Gilson View DIS 300 Info Page
4074 DIS 500 0990 Contemporary Disability Theory 6/25/2018 8/3/2018 Elizabeth Depoy View DIS 500 Info Page
4075 EAD 551 0990 Dynamics of Change in Schools 5/14/2018 6/22/2018 Patrick Womac View EAD 551 Info Page
4132 ECE 584 0990 Estimation Theory 5/14/2018 8/17/2018 Ali Abedi View ECE 584 Info Page
3438 ECO 120 0990 Principles of Microeconomics 5/14/2018 6/1/2018 Todd M Gabe View ECO 120 Info Page
3439 ECO 121 0990 Principles of Macroeconomics 6/25/2018 8/3/2018 Travis Lawrence Blackmer View ECO 121 Info Page
4034 ECO 190 0990 World Food Supply, Population and the Environment 5/14/2018 8/17/2018 Aaron Kinyu Hoshide View ECO 190 Info Page
4078 ECO 254 0990 Small Business Economics and Management 5/14/2018 8/17/2018 Travis Lawrence Blackmer View ECO 254 Info Page
4155 EDT 537 0990 Introduction to Flipped, Blended, and Online Learning 6/25/2018 8/3/2018 Jessica L Ludders View EDT 537 Info Page
3936 EDT 540 0990 Instructional Design and Project Management 6/18/2018 8/10/2018 Joella Ashley Montgomery View EDT 540 Info Page
3937 EDT 540 0991 Instructional Design and Project Management 6/18/2018 8/10/2018 Alana M Margeson View EDT 540 Info Page
4292 EDT 543 0990 Practicum in Instructional Design 5/14/2018 8/17/2018 Peter Schilling View EDT 543 Info Page
4109 EDT 545 0990 Information Security in the K-12 Environment 6/25/2018 7/27/2018 Andrew T Wallace View EDT 545 Info Page
4091 EDT 580 0990 Summer Technology Institute 7/23/2018 8/17/2018 Johanna Prince View EDT 580 Info Page
4093 EDT 598 0990 Special Topics in Instructional Technology 6/25/2018 7/27/2018 Mia Lee Morrison View EDT 598 Info Page
4004 EET 386 0990 Project Management 5/14/2018 6/1/2018 Judith Ellen Pearse View EET 386 Info Page
3440 EHD 203 0990 Educational Psychology 5/14/2018 6/1/2018 Sidney Mitchell View EHD 203 Info Page
4217 EHD 301 0990 Classroom-based Prevention and Intervention: Supporting Positive Behavior and Academic Achievement 6/4/2018 7/29/2018 TBA View EHD 301 Info Page
4219 EHD 501 0990 Social Context of Education 5/14/2018 6/22/2018 Bryan Silverman View EHD 501 Info Page
3984 EHD 520 0990 Educational Assessment 6/25/2018 8/3/2018 Brian E Doore View EHD 520 Info Page
4220 EHD 590 0991 Topics in Education 6/25/2018 8/3/2018 Evan Mooney View EHD 590 Info Page
4218 EHD 590 0990 Topics in Education 6/4/2018 7/29/2018 TBA View EHD 590 Info Page
3536 EHD 657 0990 Education Practicum 5/14/2018 7/27/2018 Richard B Kent View EHD 657 Info Page
4099 ELL 491 0869 Multiculturalism and Diversity for ESL/EFL Contexts 7/30/2018 8/17/2018 Ming Tso Chien View ELL 491 Info Page
4144 ELL 591 0869 Multiculturalism and Diversity for English as a Second Language (ESL) Contexts 7/30/2018 8/17/2018 Ming Tso Chien View ELL 591 Info Page
3783 ENG 129 0990 Topics in English 6/25/2018 8/3/2018 Alan P Marks View ENG 129 Info Page
4184 ENG 201 0990 Strategies for Writing across Contexts 5/14/2018 6/22/2018 Alan P Marks View ENG 201 Info Page
3444 ENG 205 0990 An Introduction to Creative Writing 6/25/2018 8/3/2018 TBA View ENG 205 Info Page
3810 ENG 229 0990 Topics in Literature 6/25/2018 8/3/2018 Alan P Marks View ENG 229 Info Page
3811 ENG 244 0990 Writers of Maine 6/25/2018 8/3/2018 Judith Hakola View ENG 244 Info Page
3812 ENG 245 0990 American Short Fiction 5/14/2018 6/22/2018 Murray T Callaway View ENG 245 Info Page
3697 ENG 317 0990 Business and Technical Writing 5/14/2018 6/22/2018 Murray T Callaway View ENG 317 Info Page
3698 ENG 317 0991 Business and Technical Writing 5/14/2018 6/22/2018 Heather Renee Howard View ENG 317 Info Page
3699 ENG 317 0992 Business and Technical Writing 6/25/2018 8/3/2018 Angela Christine McCue View ENG 317 Info Page
3757 ERL 537 0990 Literacy Across the Curriculum 5/14/2018 7/31/2018 William Nichols View ERL 537 Info Page
3556 ERL 590 0990 Special Topics in English Language Arts and Related Fields 6/1/2018 7/30/2018 David Charles Boardman View ERL 590 Info Page
4041 ERS 103 0990 Dynamic Earth 5/14/2018 6/1/2018 Scott E Johnson View ERS 103 Info Page
4156 ERS 191 0990 Energy in the Earth System 6/4/2018 6/22/2018 Karl Jacob Kreutz View ERS 191 Info Page
4043 FRE 490 0001 Advanced Topics in French 6/24/2018 6/29/2018 Frederic Rondeau View FRE 490 Info Page
3734 FRE 598 0001 Projects in French II 6/24/2018 6/29/2018 Frederic Rondeau View FRE 598 Info Page
3700 FSN 101 0990 Introduction to Food and Nutrition 5/14/2018 6/22/2018 Dorothy J Klimis View FSN 101 Info Page
3924 FSN 230 0990 Nutritional and Medical Terminology 5/14/2018 8/17/2018 Mary E Camire View FSN 230 Info Page
3701 FSN 270 0990 World Food and Nutrition 5/14/2018 6/22/2018 Mona Therrien View FSN 270 Info Page
4129 FSN 508 0990 Nutrition and Aging 5/14/2018 8/17/2018 Mary E Camire View FSN 508 Info Page
3448 GEO 212 0990 Geography of Maine 5/14/2018 6/22/2018 Daniel Steven Soucier View GEO 212 Info Page
4164 GRN 502 P701 Interprofessional Care of Older Adults in Diverse Settings 5/21/2018 7/11/2018 Nancy J Fishwick View GRN 502 Info Page
4165 GRN 502 0990 Interprofessional Care of Older Adults in Diverse Settings 5/21/2018 8/17/2018 Nancy J Fishwick View GRN 502 Info Page
3452 HTY 104 0990 United States History Since 1877 5/14/2018 6/1/2018 Rebecca White View HTY 104 Info Page
3453 HTY 105 0990 History of Ancient and Medieval Europe 5/14/2018 6/22/2018 Paulette E Barton View HTY 105 Info Page
3454 HTY 106 0990 History of Modern Europe 7/9/2018 8/10/2018 Paulette E Barton View HTY 106 Info Page
3455 HTY 210 0990 History of Maine 6/25/2018 8/3/2018 Ian Jesse View HTY 210 Info Page
4190 HTY 212 0990 Geography of Maine 5/14/2018 6/22/2018 Daniel Steven Soucier View HTY 212 Info Page
3784 HTY 479 0990 U.S. Environmental History 5/14/2018 6/22/2018 Eileen M Palmer View HTY 479 Info Page
3565 INT 510 0990 (BSC, SMS) Marine Invertebrate Zoology 6/4/2018 6/22/2018 TBA View INT 510 Info Page
4381 INT 601 0990 (University Wide) Responsible Conduct of Research 6/4/2018 6/15/2018 Harlan J Onsrud View INT 601 Info Page
4382 INT 601 0991 (University Wide) Responsible Conduct of Research 6/4/2018 6/15/2018 Harlan J Onsrud View INT 601 Info Page
3814 KPE 376 0990 Kinesiology 6/4/2018 6/22/2018 Jonathan Michael Gagnon View KPE 376 Info Page
4101 KPE 490 0990 Nutrition for Sports and Exercise 6/25/2018 7/13/2018 Robert A Lehnhard View KPE 490 Info Page
4170 LDR 100 0990 Foundations of Leadership 5/14/2018 6/22/2018 Richard J Powell View LDR 100 Info Page
4171 LDR 200 0990 Leadership Ethics 7/16/2018 8/3/2018 Mark D Brewer View LDR 200 Info Page
4168 MAT 111 0990 Algebra for College Mathematics 5/14/2018 6/22/2018 Tandy L Del Vecchio View MAT 111 Info Page
3639 MAT 115 0990 Applied Mathematics for Business and Economics 5/14/2018 6/22/2018 Tandy L Del Vecchio View MAT 115 Info Page
3769 MAT 122 0990 Pre-Calculus 5/14/2018 6/22/2018 Todd W Zoroya View MAT 122 Info Page
4114 MES 101 0990 Introduction to Maine Studies 5/14/2018 6/22/2018 Jennifer Pickard View MES 101 Info Page
4123 MES 201 0990 The Maine Coast 6/25/2018 8/3/2018 Ian Jesse View MES 201 Info Page
4145 MES 301 0990 Rachel Carson, Maine, and the Environment 5/14/2018 6/22/2018 Daniel Steven Soucier View MES 301 Info Page
4104 MES 520 0991 Advanced Topics in Maine Studies 5/14/2018 6/22/2018 Daniel Steven Soucier View MES 520 Info Page
4105 MES 520 0992 Advanced Topics in Maine Studies 6/25/2018 8/3/2018 Pauleena M Macdougall View MES 520 Info Page
3456 MUL 101 0990 The Art of Listening to Music: Elements 7/9/2018 7/27/2018 Anatole Wieck View MUL 101 Info Page
4122 MUL 150 0990 Rock'n Roll and other 20th Century Music 6/4/2018 6/22/2018 Anatole Wieck View MUL 150 Info Page
3457 MUY 101 0990 Fundamentals of Music 5/14/2018 6/1/2018 Stuart L Marrs View MUY 101 Info Page
3870 NAS 101 0991 Introduction to Native American Studies 8/6/2018 8/24/2018 Lisa K Neuman View NAS 101 Info Page
3869 NAS 101 0990 Introduction to Native American Studies 7/16/2018 8/3/2018 John B Mitchell View NAS 101 Info Page
3884 NUR 303 0990 Pathophysiology 5/14/2018 6/29/2018 Deborah Saber View NUR 303 Info Page
3751 NUR 505 0990 Nursing Research 6/4/2018 7/20/2018 Patricia A Poirier View NUR 505 Info Page
3904 NUR 521 0990 Nurse Practitioner Gynecologic and Reproductive Care of Women 5/14/2018 8/17/2018 Mary L Shea, Karen Ann Sullivan View NUR 521 Info Page
3905 NUR 521 1990 Nurse Practitioner Gynecologic and Reproductive Care of Women 5/14/2018 8/17/2018 Karen Ann Sullivan View NUR 521 Info Page
4213 PAX 201 0990 Introduction to Peace and Reconciliation Studies 6/25/2018 8/3/2018 Hugh J Curran View PAX 201 Info Page
4098 PAX 250 0990 Peace and Pop Culture 5/14/2018 6/1/2018 James F Toner View PAX 250 Info Page
3956 PHI 100 0990 Contemporary Moral Problems 5/14/2018 6/1/2018 Derek Anthony Michaud View PHI 100 Info Page
3486 POS 100 0990 American Government 6/25/2018 8/3/2018 Richard J Powell View POS 100 Info Page
4025 POS 201 0990 Introduction to Political Theory 6/4/2018 6/22/2018 Robert Glover View POS 201 Info Page
3789 POS 203 0990 American State and Local Government 6/4/2018 6/22/2018 Mark D Brewer View POS 203 Info Page
4026 POS 273 0990 International Relations 5/14/2018 6/22/2018 Robert Glover View POS 273 Info Page
4163 POS 348 0990 The Politics of Sport in America 5/14/2018 6/1/2018 Mark D Brewer View POS 348 Info Page
3489 PSY 100 0990 General Psychology 5/14/2018 6/22/2018 Jordan LaBouff View PSY 100 Info Page
4053 PSY 208 0990 Theories of Personality 6/25/2018 8/3/2018 Michael A Robbins View PSY 208 Info Page
4054 PSY 224 0990 Psychology of Adolescence 5/14/2018 6/22/2018 Cynthia Erdley View PSY 224 Info Page
4058 PSY 241 0990 Statistics in Psychology 5/14/2018 6/22/2018 Shannon K McCoy View PSY 241 Info Page
4140 SED 500 0990 Adapting Instruction for Students with Disabilities 5/14/2018 6/1/2018 Diane W Jackson View SED 500 Info Page
4068 SED 516 0990 Seminar and Practicum in Collaborative Consultation 5/14/2018 8/17/2018 Kellie Jane Irving View SED 516 Info Page
3759 SED 520 0990 Law and Policy Affecting Individuals with Disabilities 6/4/2018 8/1/2018 Debrajean Jensis Scheibel View SED 520 Info Page
4097 SED 528 0990 Educational Methods for Students with Autism 6/25/2018 8/3/2018 Gretchen Scheibel View SED 528 Info Page
4087 SED 543 0990 Program Planning and Curriculum Access 7/16/2018 8/3/2018 Diane W Jackson View SED 543 Info Page
3431 SED 563 0990 Positive Behavior Support for Students with Autism Spectrum Disorders 5/14/2018 6/22/2018 Gretchen Scheibel View SED 563 Info Page
4159 SED 564 0990 Universal Design for Learning in PreK-12 Classrooms 6/4/2018 7/13/2018 Sara Flanagan View SED 564 Info Page
4157 SED 583 P701 Response to Intervention for Behavior: Individualized Interventions 5/14/2018 8/17/2018 Courtney Jill Angelosante View SED 583 Info Page
4158 SED 583 0990 Response to Intervention for Behavior: Individualized Interventions 5/14/2018 8/17/2018 A James Artesani View SED 583 Info Page
4096 SED 598 0990 Special Topics in Special Education 5/14/2018 8/17/2018 Gretchen Scheibel View SED 598 Info Page
4095 SED 598 0991 Special Topics in Special Education 5/14/2018 8/17/2018 Debrajean Jensis Scheibel View SED 598 Info Page
3985 SED 610 0990 Internship in Special Education Teaching 5/14/2018 8/17/2018 Deborah Rooks View SED 610 Info Page
3986 SED 620 0990 Practicum in Special Education 5/14/2018 8/17/2018 Deborah Rooks View SED 620 Info Page
4290 SED 697 0990 Independent Study in Special Education 5/14/2018 8/17/2018 Deborah Rooks View SED 697 Info Page
4180 SMS 374 0990 Deep Sea Biology 5/14/2018 6/22/2018 Rhian Waller View SMS 374 Info Page
3657 SOC 214 0990 Crime and Criminal Justice 5/14/2018 6/1/2018 Karyn Sporer View SOC 214 Info Page
3872 SOC 340 0990 Intermediate Topics in Sociology 5/14/2018 6/22/2018 Glenn Eichel View SOC 340 Info Page
3706 SPA 203 0990 Intermediate Spanish I 5/14/2018 6/22/2018 Maria D Sandweiss View SPA 203 Info Page
3775 STS 232 0990 Principles of Statistical Inference 5/14/2018 6/22/2018 Todd W Zoroya View STS 232 Info Page
3939 SWK 530 0990 MSW Advanced Standing Bridging-Social Welfare Policy 6/11/2018 6/30/2018 Sandra S Butler View SWK 530 Info Page
3940 SWK 531 0990 MSW Advanced Standing Bridging-Social Work Practice 5/21/2018 6/10/2018 Gail B Werrbach View SWK 531 Info Page
3942 SWK 533 0990 MSW Advanced Standing Bridging-Human Behavior and the Social Environment 7/2/2018 7/22/2018 Nancy A Kelly View SWK 533 Info Page
3896 SWK 580 0990 Adult and Child Psychopathology 5/14/2018 8/17/2018 Brent Wolcott Scobie View SWK 580 Info Page
3644 SWK 595 0665 Field Practicum in Social Work 5/19/2018 8/11/2018 Leah Anne Maxwell View SWK 595 Info Page
3645 SWK 595 0669 Field Practicum in Social Work 5/19/2018 8/17/2018 Ralph Benjamin McPherson View SWK 595 Info Page
3647 SWK 597 0990 Advanced Topics in Social Work 5/14/2018 8/17/2018 Gail B Werrbach View SWK 597 Info Page
3887 SWK 661 0990 Advanced Generalist Social Work Practice with Individuals 5/19/2018 8/11/2018 Loren J Andrews View SWK 661 Info Page
3651 SWK 695 0993 Advanced Field Practicum in Social Work 7/9/2018 8/13/2018 Deirdre F Boylan View SWK 695 Info Page
3648 SWK 695 0990 Advanced Field Practicum in Social Work 5/14/2018 6/29/2018 Nancy A Kelly View SWK 695 Info Page
3649 SWK 695 0991 Advanced Field Practicum in Social Work 7/1/2018 8/18/2018 Nancy A Kelly View SWK 695 Info Page
3650 SWK 695 0992 Advanced Field Practicum in Social Work 5/14/2018 6/25/2018 Deirdre F Boylan View SWK 695 Info Page
3492 THE 111 0990 Introduction to Theatre 6/4/2018 6/22/2018 Thomas J Mikotowicz View THE 111 Info Page
3600 WGS 101 0990 Women's, Gender and Sexuality Studies 5/14/2018 6/22/2018 Mary Okin View WGS 101 Info Page
3601 WGS 201 0990 Topics in Women's, Gender, and Sexuality Studies 6/25/2018 8/3/2018 Jennie Mae Woodard View WGS 201 Info Page
3840 WGS 301 0990 Intermediate Topics in Women's, Gender, and Sexuality Studies 5/14/2018 6/22/2018 Nicolle Littrell View WGS 301 Info Page